Terminal Aerodrome Forecast
Issued by NWS Upton, NY

Home | Current Version | Previous Version | Text Only | Print | Product List | Glossary On
Versions: 1 2 3 4 5 6 7 8 9 10 11 12 13 14 15 16 17 18 19 20 21 22 23 24 25 26 27 28 29 30 31 32 33 34 35 36 37
342
FTUS41 KOKX 230214 AAB
TAFLGA
TAF AMD
KLGA 230214Z 2302/2406 05011KT P6SM BKN015 OVC035
      TEMPO 2302/2305 SCT015
     FM231300 08008KT P6SM OVC012
     FM231700 09009KT 3SM -RA BR OVC008
     FM232100 10008KT 2SM RA BR OVC006
     FM240300 22004KT 2SM -DZ BR VV005=

USA.gov is the U.S. government's official web portal to all federal, state and local government web resources and services.